Accueil
METAR-TAF:

METAR-TAF

Aéroports :

Córdoba, Argentine

latitude: 31-19S, longitude: 064-13W, altitude: 484 m

Observation

Le bulletin a été fait il y a 39 minutes, à 13:00 UTC
Vent 8 kt de nord/nord-est
Température 24°C
Humidité 65%
Pression 1018 hPa
Visibilité 10 km ou plus
Quelques nuages à une hauteur de 2000 ft

METAR: SACO 161300Z 02008KT 9999 FEW020 24/17 Q1018 NOSIG

Heure: 10:39 (13:39 UTC)

Prévision

Le bulletin a été fait il y a 2 heures et 39 minutes, à 11:00 UTC
Prévision valable du 16 à 12 UTC au 17 à 12 UTC
Vent 10 kt de nord/nord-est
Visibilité 10 km ou plus
Nuages épars à une hauteur de 3000 ft
Evoluant progressivement
du 17 à 06 UTC au 17 à 09 UTC
Vent 5 kt de nord/nord-ouest
Visibilité 10 km ou plus
pas de nuages en-dessous de 1500 mètres et pas de cumulonimbus.

TAF: SACO 161100Z 1612/1712 02010KT 9999 SCT030 TX32/1619Z TN15/1710 BECMG 1706/1709 34005KT CAVOK

Observations et prévisions météorologiques de plus de 4000 aéroports (messages METAR et TAF).

Les stations disponibles sont représentées par des disques jaunes et rouges sur la carte.

Passer la souris dessus pour voir le nom de la station.

Cliquer dessus pour voir les observations et prévisions météorologiques.

Pour changer de carte: cliquez sur les boutons verts avec une croix noire pour zoomer, sur le bouton vert avec un tiret pour effectuer un zoom arrière, ou sur les flèches vertes pour les cartes adjacentes.


METAR-TAF: